Página principal
METAR-TAF:

METAR-TAF

Aeroportos :

Aeroporto Internacional Mercedita

Ponce, Porto Rico, Estados Unidos

latitude: 18-01N, longitude: 066-34W, altura: 8 m

METAR: em falta

Hora: 06:31 (10:31 UTC)

Previsão

O boletim foi feito há 5 horas e 11 minutos, às 05:20 UTC
Previsão válida de 19 às 06 UTC a 20 às 06 UTC
Vento 4 kt de este
Visibilidade: 10 km
Poucas nuvensa uma altura de 2500 ft
aguaceiros nas vizinhanças
A partir de 19 às 1400 UTC
Vento 15 kt de su-sudeste
Visibilidade: 10 km
Poucas nuvensa uma altura de 2500 ft
Nuvens dispersasa uma altura de 4000 ft
aguaceiros nas vizinhanças
A partir de 19 às 2330 UTC
Vento 6 kt de este
Visibilidade: 10 km
Poucas nuvensa uma altura de 3000 ft
Nuvens dispersasa uma altura de 5000 ft
aguaceiros nas vizinhanças

TAF: TJPS 190520Z 1906/2006 09004KT P6SM VCSH FEW025 FM191400 15015KT P6SM VCSH FEW025 SCT040 FM192330 08006KT P6SM VCSH FEW030 SCT050 AMD NOT SKED

Observações e previsões do tempo de mais de 4000 aeroportos (mensagens METAR e TAF).

As estações disponíveis são os pontos amarelos e vermelhos sobre o mapa.

Mova o rato sobre o mapa para ver o nome da estação.

Depois clique no ponto para visualizar as observações e previsões meteorológicas.

Para alterar o mapa : clique nos botões verdes com uma cruz preta para aumentar o zoom; no botão verde com uma pitada de zoom; ou nas setas verdes para mapas adjacentes.


METAR-TAF: